Time;durP1;ratioP1;P1;durP2;ratioP2;P2;SDS_P1;SDS_P2;PMS_P1;PMS_P2;Temp;Humidity;BMP_temperature;BMP_pressure;BME280_temperature;BME280_humidity;BME280_pressure;Samples;Min_cycle;Max_cycle;Signal;HPM_P1;HPM_P2
2023/04/17 00:01:46;;;;;;;7.47;5.45;;;;;;;;;;5056105;28;20032;-74
2023/04/17 00:04:12;;;;;;;6.53;5.17;;;;;;;;;;5056044;28;20032;-74
2023/04/17 00:06:38;;;;;;;6.50;5.07;;;;;;;;;;5056546;28;20258;-74
2023/04/17 00:09:04;;;;;;;6.63;5.07;;;;;;;;;;5056144;28;20341;-74
2023/04/17 00:11:29;;;;;;;6.95;5.15;;;;;;;;;;5055968;28;20529;-74
2023/04/17 00:13:54;;;;;;;7.10;5.45;;;;;;;;;;5053418;28;20036;-74
2023/04/17 00:16:20;;;;;;;7.50;5.30;;;;;;;;;;5053315;28;20025;-74
2023/04/17 00:18:45;;;;;;;7.63;5.95;;;;;;;;;;5053351;28;20051;-74
2023/04/17 00:21:10;;;;;;;6.60;5.10;;;;;;;;;;5054540;28;20381;-74
2023/04/17 00:23:35;;;;;;;5.73;4.80;;;;;;;;;;5053216;28;20620;-74
2023/04/17 00:26:00;;;;;;;6.47;5.20;;;;;;;;;;5054469;28;20330;-74
2023/04/17 00:28:26;;;;;;;7.00;5.53;;;;;;;;;;5054729;28;20717;-74
2023/04/17 00:30:51;;;;;;;7.07;5.50;;;;;;;;;;5053961;28;20689;-74
2023/04/17 00:33:16;;;;;;;6.82;4.82;;;;;;;;;;5053419;28;20613;-74
2023/04/17 00:35:41;;;;;;;6.67;5.13;;;;;;;;;;5054471;28;20055;-73
2023/04/17 00:38:08;;;;;;;6.10;4.90;;;;;;;;;;5053398;28;20772;-74
2023/04/17 00:40:33;;;;;;;6.72;5.00;;;;;;;;;;5054863;28;20262;-74
2023/04/17 00:43:00;;;;;;;6.30;5.13;;;;;;;;;;5052984;28;20040;-74
2023/04/17 00:45:25;;;;;;;7.15;5.40;;;;;;;;;;5054266;28;20031;-74
2023/04/17 00:47:51;;;;;;;7.20;5.30;;;;;;;;;;5054257;28;20021;-74
2023/04/17 00:50:16;;;;;;;6.35;5.05;;;;;;;;;;5054199;28;20249;-75
2023/04/17 00:52:43;;;;;;;6.65;5.25;;;;;;;;;;5054173;28;20040;-74
2023/04/17 00:55:09;;;;;;;7.82;4.70;;;;;;;;;;5054253;28;20028;-74
2023/04/17 00:57:35;;;;;;;7.43;5.45;;;;;;;;;;5054050;28;20451;-75
2023/04/17 01:00:00;;;;;;;7.88;5.78;;;;;;;;;;5053923;28;20033;-75
2023/04/17 01:02:25;;;;;;;6.78;5.05;;;;;;;;;;5052528;28;20430;-74
2023/04/17 01:04:51;;;;;;;6.95;5.30;;;;;;;;;;5054077;28;20029;-74
2023/04/17 01:07:16;;;;;;;6.30;5.03;;;;;;;;;;5054077;28;20556;-74
2023/04/17 01:09:41;;;;;;;9.82;5.40;;;;;;;;;;5052735;28;20075;-74
2023/04/17 01:12:17;;;;;;;6.80;5.28;;;;;;;;;;5019126;28;974148;-74
2023/04/17 01:14:43;;;;;;;7.57;5.38;;;;;;;;;;5054847;28;20484;-74
2023/04/17 01:17:09;;;;;;;7.10;5.00;;;;;;;;;;5054755;28;20039;-74
2023/04/17 01:19:34;;;;;;;6.65;5.03;;;;;;;;;;5054964;28;20077;-74
2023/04/17 01:22:00;;;;;;;5.70;4.60;;;;;;;;;;5053358;28;20074;-74
2023/04/17 01:24:25;;;;;;;5.93;4.43;;;;;;;;;;5054561;28;20031;-74
2023/04/17 01:26:50;;;;;;;6.55;4.78;;;;;;;;;;5054606;28;20253;-74
2023/04/17 01:29:15;;;;;;;5.67;4.73;;;;;;;;;;5054518;28;20029;-74
2023/04/17 01:31:40;;;;;;;5.83;4.40;;;;;;;;;;5053490;28;20255;-74
2023/04/17 01:34:06;;;;;;;5.50;4.33;;;;;;;;;;5053082;28;20257;-74
2023/04/17 01:36:31;;;;;;;7.10;4.53;;;;;;;;;;5054398;28;20245;-74
2023/04/17 01:38:56;;;;;;;5.18;4.30;;;;;;;;;;5053128;28;20319;-74
2023/04/17 01:41:22;;;;;;;5.83;4.73;;;;;;;;;;5053959;28;20025;-74
2023/04/17 01:43:47;;;;;;;5.53;4.07;;;;;;;;;;5053589;28;20264;-75
2023/04/17 01:46:12;;;;;;;6.38;4.75;;;;;;;;;;5054116;28;20332;-74
2023/04/17 01:48:38;;;;;;;4.75;3.75;;;;;;;;;;5054151;28;20060;-74
2023/04/17 01:51:04;;;;;;;5.90;4.13;;;;;;;;;;5054492;28;20040;-74
2023/04/17 01:53:30;;;;;;;6.00;4.40;;;;;;;;;;5053014;28;20463;-74
2023/04/17 01:55:56;;;;;;;5.15;4.10;;;;;;;;;;5052839;28;20515;-74
2023/04/17 01:58:21;;;;;;;4.82;3.65;;;;;;;;;;5054265;28;20032;-74
2023/04/17 02:00:47;;;;;;;5.35;4.20;;;;;;;;;;5054074;28;20106;-74
2023/04/17 02:03:12;;;;;;;5.82;4.07;;;;;;;;;;5054139;28;20035;-75
2023/04/17 02:05:38;;;;;;;5.15;4.00;;;;;;;;;;5053789;28;20025;-74
2023/04/17 02:08:03;;;;;;;5.30;4.23;;;;;;;;;;5052484;28;20017;-75
2023/04/17 02:10:29;;;;;;;4.50;3.45;;;;;;;;;;5052515;28;20254;-74
2023/04/17 02:12:54;;;;;;;7.50;4.35;;;;;;;;;;5053628;28;20392;-74
2023/04/17 02:15:20;;;;;;;4.22;3.50;;;;;;;;;;5053715;28;20056;-74
2023/04/17 02:17:45;;;;;;;5.03;3.50;;;;;;;;;;5053627;28;20479;-74
2023/04/17 02:20:11;;;;;;;3.92;3.08;;;;;;;;;;5053659;28;20025;-74
2023/04/17 02:22:36;;;;;;;4.30;3.20;;;;;;;;;;5053537;28;20029;-73
2023/04/17 02:25:01;;;;;;;5.07;3.23;;;;;;;;;;5053607;28;20028;-74
2023/04/17 02:27:27;;;;;;;3.92;3.17;;;;;;;;;;5052361;28;20265;-74
2023/04/17 02:29:52;;;;;;;3.40;2.78;;;;;;;;;;5052155;28;20507;-74
2023/04/17 02:32:17;;;;;;;3.30;2.40;;;;;;;;;;5052187;28;20024;-74
2023/04/17 02:34:42;;;;;;;3.03;2.53;;;;;;;;;;5053337;28;20249;-75
2023/04/17 02:37:07;;;;;;;3.13;2.03;;;;;;;;;;5053743;28;20257;-74
2023/04/17 02:39:34;;;;;;;4.97;2.30;;;;;;;;;;5052056;28;20266;-75
2023/04/17 02:42:00;;;;;;;3.03;2.38;;;;;;;;;;5051959;28;20285;-74
2023/04/17 02:44:26;;;;;;;2.60;2.10;;;;;;;;;;5053545;28;20246;-74
2023/04/17 02:46:51;;;;;;;2.70;2.28;;;;;;;;;;5053182;28;20076;-75
2023/04/17 02:49:16;;;;;;;3.40;2.50;;;;;;;;;;5053230;28;20506;-75
2023/04/17 02:51:41;;;;;;;3.77;2.80;;;;;;;;;;5053137;28;20809;-74
2023/04/17 02:54:07;;;;;;;3.50;2.63;;;;;;;;;;5052925;28;20789;-75
2023/04/17 02:56:32;;;;;;;3.73;2.77;;;;;;;;;;5051696;28;20029;-75
2023/04/17 02:58:57;;;;;;;4.07;3.10;;;;;;;;;;5053127;28;20254;-74
2023/04/17 03:01:22;;;;;;;4.30;2.97;;;;;;;;;;5051709;28;20480;-75
2023/04/17 03:03:48;;;;;;;3.05;2.50;;;;;;;;;;5052778;28;20814;-75
2023/04/17 03:06:13;;;;;;;3.17;2.60;;;;;;;;;;5052872;28;20439;-74
2023/04/17 03:08:38;;;;;;;3.93;2.67;;;;;;;;;;5053164;28;20040;-74
2023/04/17 03:11:04;;;;;;;3.63;2.55;;;;;;;;;;5052766;28;20257;-75
2023/04/17 03:13:33;;;;;;;3.88;2.65;;;;;;;;;;5053015;28;20032;-74
2023/04/17 03:15:59;;;;;;;3.97;2.80;;;;;;;;;;5052873;28;20029;-74
2023/04/17 03:18:24;;;;;;;3.80;2.60;;;;;;;;;;5053104;28;20536;-75
2023/04/17 03:20:49;;;;;;;3.28;2.70;;;;;;;;;;5052872;28;20116;-75
2023/04/17 03:23:15;;;;;;;3.60;2.80;;;;;;;;;;5052697;28;20075;-74
2023/04/17 03:25:40;;;;;;;3.93;3.00;;;;;;;;;;5052747;28;20258;-74
2023/04/17 03:28:05;;;;;;;3.47;2.85;;;;;;;;;;5053259;28;20342;-74
2023/04/17 03:30:30;;;;;;;3.50;2.90;;;;;;;;;;5052834;28;20395;-74
2023/04/17 03:32:56;;;;;;;4.20;2.83;;;;;;;;;;5052597;28;20025;-75
2023/04/17 03:35:21;;;;;;;3.97;2.88;;;;;;;;;;5052863;28;20021;-75
2023/04/17 03:37:46;;;;;;;3.38;2.65;;;;;;;;;;5052716;28;20524;-74
2023/04/17 03:40:12;;;;;;;3.70;3.13;;;;;;;;;;5052674;28;20029;-75
2023/04/17 03:42:37;;;;;;;4.20;3.08;;;;;;;;;;5052899;28;20365;-73
2023/04/17 03:45:03;;;;;;;4.87;3.17;;;;;;;;;;5053115;28;20060;-73
2023/04/17 03:47:29;;;;;;;4.32;3.38;;;;;;;;;;5051340;28;20265;-75
2023/04/17 03:49:54;;;;;;;5.47;3.72;;;;;;;;;;5051281;28;20025;-75
2023/04/17 03:52:20;;;;;;;6.05;4.20;;;;;;;;;;5051279;28;20496;-75
2023/04/17 03:54:45;;;;;;;5.28;3.47;;;;;;;;;;5052368;28;20503;-74
2023/04/17 03:57:10;;;;;;;5.35;3.65;;;;;;;;;;5052502;28;20029;-75
2023/04/17 03:59:35;;;;;;;4.70;3.80;;;;;;;;;;5051343;28;20051;-74
2023/04/17 04:02:01;;;;;;;6.37;4.03;;;;;;;;;;5052583;28;20113;-74
2023/04/17 04:04:26;;;;;;;5.07;3.40;;;;;;;;;;5052380;28;20361;-74
2023/04/17 04:06:53;;;;;;;4.55;3.55;;;;;;;;;;5055453;28;20033;-75
2023/04/17 04:09:18;;;;;;;4.93;3.67;;;;;;;;;;5056184;28;20067;-75
2023/04/17 04:11:43;;;;;;;5.75;4.22;;;;;;;;;;5055946;28;20444;-75
2023/04/17 04:14:09;;;;;;;4.90;3.67;;;;;;;;;;5056500;28;20036;-74
2023/04/17 04:16:34;;;;;;;5.43;3.80;;;;;;;;;;5054706;28;20258;-74
2023/04/17 04:19:00;;;;;;;5.13;3.83;;;;;;;;;;5054749;28;20058;-74
2023/04/17 04:21:27;;;;;;;5.13;3.58;;;;;;;;;;5055775;28;20487;-74
2023/04/17 04:23:52;;;;;;;5.03;3.53;;;;;;;;;;5055897;28;20035;-73
2023/04/17 04:26:17;;;;;;;5.93;3.77;;;;;;;;;;5054683;28;20121;-74
2023/04/17 04:28:42;;;;;;;4.33;3.30;;;;;;;;;;5054510;28;20297;-74
2023/04/17 04:31:08;;;;;;;4.88;3.78;;;;;;;;;;5055773;28;20283;-74
2023/04/17 04:33:34;;;;;;;4.82;3.33;;;;;;;;;;5055836;28;20025;-74
2023/04/17 04:36:00;;;;;;;4.95;3.63;;;;;;;;;;5054386;28;20021;-74
2023/04/17 04:38:29;;;;;;;5.68;4.10;;;;;;;;;;5055825;28;20029;-74
2023/04/17 04:41:00;;;;;;;4.72;3.50;;;;;;;;;;5054296;28;20083;-74
2023/04/17 04:43:27;;;;;;;4.03;3.20;;;;;;;;;;5055742;28;20085;-75
2023/04/17 04:45:53;;;;;;;3.25;2.65;;;;;;;;;;5055449;28;20050;-74
2023/04/17 04:48:18;;;;;;;5.25;2.95;;;;;;;;;;5055471;28;20104;-75
2023/04/17 04:50:44;;;;;;;4.77;2.97;;;;;;;;;;5055531;28;20101;-74
2023/04/17 04:53:09;;;;;;;4.15;3.10;;;;;;;;;;5055639;28;20329;-74
2023/04/17 04:55:34;;;;;;;3.57;3.00;;;;;;;;;;5054111;28;20590;-74
2023/04/17 04:58:00;;;;;;;4.20;2.80;;;;;;;;;;5055149;28;20754;-74
2023/04/17 05:00:25;;;;;;;3.07;2.60;;;;;;;;;;5055426;28;20393;-74
2023/04/17 05:02:50;;;;;;;2.93;2.50;;;;;;;;;;5054829;28;20282;-74
2023/04/17 05:05:15;;;;;;;3.65;2.40;;;;;;;;;;5055011;28;20258;-74
2023/04/17 05:07:41;;;;;;;5.38;2.85;;;;;;;;;;5054904;28;20104;-74
2023/04/17 05:10:07;;;;;;;2.80;2.10;;;;;;;;;;5053668;28;20415;-75
2023/04/17 05:12:33;;;;;;;3.17;2.03;;;;;;;;;;5053580;28;20028;-74
2023/04/17 05:14:59;;;;;;;1.55;1.42;;;;;;;;;;5054754;28;20078;-75
2023/04/17 05:17:24;;;;;;;1.73;1.50;;;;;;;;;;5053870;28;20413;-75
2023/04/17 05:19:49;;;;;;;1.60;1.20;;;;;;;;;;5053407;28;20017;-73
2023/04/17 05:22:15;;;;;;;1.20;1.03;;;;;;;;;;5054902;28;20021;-74
2023/04/17 05:24:40;;;;;;;0.95;0.93;;;;;;;;;;5053349;28;20265;-74
2023/04/17 05:27:05;;;;;;;0.80;0.80;;;;;;;;;;5053282;28;20467;-75
2023/04/17 05:29:31;;;;;;;1.00;0.90;;;;;;;;;;5054559;28;20660;-74
2023/04/17 05:31:57;;;;;;;2.33;1.10;;;;;;;;;;5054502;28;20256;-74
2023/04/17 05:34:22;;;;;;;1.10;1.00;;;;;;;;;;5054372;28;20025;-74
2023/04/17 05:36:47;;;;;;;2.07;1.40;;;;;;;;;;5054628;28;20024;-73
2023/04/17 05:39:12;;;;;;;2.10;1.17;;;;;;;;;;5054383;28;20308;-74
2023/04/17 05:41:38;;;;;;;2.10;1.05;;;;;;;;;;5054177;28;20025;-74
2023/04/17 05:44:03;;;;;;;1.30;1.10;;;;;;;;;;5054178;28;20627;-74
2023/04/17 05:46:31;;;;;;;1.52;1.38;;;;;;;;;;5054421;28;20772;-74
2023/04/17 05:48:57;;;;;;;1.20;1.00;;;;;;;;;;5053022;28;20060;-74
2023/04/17 05:51:22;;;;;;;1.58;1.20;;;;;;;;;;5054145;28;20060;-74
2023/04/17 05:53:47;;;;;;;2.55;1.50;;;;;;;;;;5052846;28;20031;-74
2023/04/17 05:56:13;;;;;;;1.85;1.48;;;;;;;;;;5054435;28;20025;-74
2023/04/17 05:58:38;;;;;;;3.05;1.70;;;;;;;;;;5054251;28;20028;-74
2023/04/17 06:01:05;;;;;;;2.15;1.77;;;;;;;;;;5054197;28;20032;-74
2023/04/17 06:03:31;;;;;;;1.92;1.63;;;;;;;;;;5052795;28;20029;-74
2023/04/17 06:05:57;;;;;;;1.73;1.52;;;;;;;;;;5052712;28;20021;-74
2023/04/17 06:08:22;;;;;;;2.28;1.60;;;;;;;;;;5053774;28;20391;-74
2023/04/17 06:10:48;;;;;;;1.90;1.57;;;;;;;;;;5053755;28;20024;-74
2023/04/17 06:13:14;;;;;;;1.58;1.42;;;;;;;;;;5053520;28;20262;-74
2023/04/17 06:15:39;;;;;;;2.05;1.38;;;;;;;;;;5052390;28;20047;-74
2023/04/17 06:18:05;;;;;;;1.52;1.25;;;;;;;;;;5052368;28;20078;-74
2023/04/17 06:20:30;;;;;;;2.53;1.77;;;;;;;;;;5053569;28;20024;-74
2023/04/17 06:22:55;;;;;;;16.17;5.57;;;;;;;;;;5053461;28;20032;-73
2023/04/17 06:25:21;;;;;;;3.03;1.45;;;;;;;;;;5052233;28;20032;-73
2023/04/17 06:27:46;;;;;;;3.22;1.88;;;;;;;;;;5051881;28;20126;-74
2023/04/17 06:30:12;;;;;;;3.17;1.88;;;;;;;;;;5053625;28;20498;-73
2023/04/17 06:32:40;;;;;;;2.10;1.35;;;;;;;;;;5053626;28;20029;-74
2023/04/17 06:35:06;;;;;;;2.15;1.50;;;;;;;;;;5052192;28;20025;-75
2023/04/17 06:37:31;;;;;;;2.65;1.55;;;;;;;;;;5053334;28;20048;-74
2023/04/17 06:39:57;;;;;;;2.53;1.40;;;;;;;;;;5053751;28;20499;-74
2023/04/17 06:42:22;;;;;;;2.55;2.08;;;;;;;;;;5053200;28;20277;-74
2023/04/17 06:44:47;;;;;;;6.63;2.10;;;;;;;;;;5053740;28;20364;-74
2023/04/17 06:47:12;;;;;;;2.87;2.20;;;;;;;;;;5053526;28;20671;-74
2023/04/17 06:49:38;;;;;;;2.73;1.90;;;;;;;;;;5052054;28;20640;-73
2023/04/17 06:52:04;;;;;;;2.72;2.15;;;;;;;;;;5053363;28;20741;-73
2023/04/17 06:54:29;;;;;;;3.30;2.13;;;;;;;;;;5053044;28;20098;-73
2023/04/17 06:56:55;;;;;;;3.20;2.40;;;;;;;;;;5053170;28;20074;-74
2023/04/17 06:59:20;;;;;;;3.53;2.42;;;;;;;;;;5053139;28;20075;-74
2023/04/17 07:01:46;;;;;;;5.47;2.00;;;;;;;;;;5053276;28;20086;-73
2023/04/17 07:04:11;;;;;;;2.88;2.30;;;;;;;;;;5052972;28;20432;-73
2023/04/17 07:06:38;;;;;;;3.13;2.17;;;;;;;;;;5053110;28;20398;-73
2023/04/17 07:09:03;;;;;;;2.50;2.08;;;;;;;;;;5053298;28;20107;-73
2023/04/17 07:11:31;;;;;;;2.72;2.20;;;;;;;;;;5053155;28;20063;-73
2023/04/17 07:13:56;;;;;;;3.25;2.20;;;;;;;;;;5053361;28;20074;-74
2023/04/17 07:16:22;;;;;;;2.60;2.08;;;;;;;;;;5051596;28;20403;-74
2023/04/17 07:18:49;;;;;;;2.28;1.88;;;;;;;;;;5051653;28;20040;-74
2023/04/17 07:21:15;;;;;;;3.20;2.42;;;;;;;;;;5053056;28;20033;-74
2023/04/17 07:23:40;;;;;;;2.40;2.10;;;;;;;;;;5051382;28;20495;-74
2023/04/17 07:26:06;;;;;;;2.63;1.60;;;;;;;;;;5053097;28;20078;-74
2023/04/17 07:28:31;;;;;;;2.25;1.58;;;;;;;;;;5052177;28;20029;-74
2023/04/17 07:30:56;;;;;;;2.50;1.60;;;;;;;;;;5051358;28;20137;-74
2023/04/17 07:33:22;;;;;;;2.00;1.80;;;;;;;;;;5053220;28;20024;-74
2023/04/17 07:35:47;;;;;;;2.25;1.90;;;;;;;;;;5052432;28;20060;-73
2023/04/17 07:38:13;;;;;;;2.30;1.73;;;;;;;;;;5052736;28;20078;-74
2023/04/17 07:40:38;;;;;;;2.07;1.80;;;;;;;;;;5053857;28;20067;-75
2023/04/17 07:43:03;;;;;;;2.22;1.65;;;;;;;;;;5056867;28;20277;-75
2023/04/17 07:45:29;;;;;;;1.65;1.55;;;;;;;;;;5056389;28;20472;-75
2023/04/17 07:47:54;;;;;;;2.03;1.77;;;;;;;;;;5055229;28;20025;-75
2023/04/17 07:50:22;;;;;;;3.25;1.70;;;;;;;;;;5056465;28;20029;-75
2023/04/17 07:52:47;;;;;;;2.03;1.60;;;;;;;;;;5056306;28;20047;-75
2023/04/17 07:55:13;;;;;;;2.13;1.80;;;;;;;;;;5056228;28;20056;-75
2023/04/17 07:57:45;;;;;;;2.90;1.55;;;;;;;;;;5056538;28;20082;-75
2023/04/17 08:00:14;;;;;;;1.50;1.17;;;;;;;;;;5054915;28;20056;-75
2023/04/17 08:02:40;;;;;;;2.20;1.58;;;;;;;;;;5055969;28;20108;-73
2023/04/17 08:05:06;;;;;;;1.77;1.42;;;;;;;;;;5056688;28;20024;-73
2023/04/17 08:07:32;;;;;;;2.60;1.85;;;;;;;;;;5056464;28;20077;-73
2023/04/17 08:09:57;;;;;;;1.67;1.30;;;;;;;;;;5056298;28;20028;-74
2023/04/17 08:12:22;;;;;;;2.10;1.57;;;;;;;;;;5054491;28;20029;-73
2023/04/17 08:14:47;;;;;;;1.27;1.07;;;;;;;;;;5055750;28;20261;-74
2023/04/17 08:17:12;;;;;;;2.55;1.80;;;;;;;;;;5056021;28;20262;-73
2023/04/17 08:19:40;;;;;;;1.95;1.55;;;;;;;;;;5056503;28;20025;-74
2023/04/17 08:22:06;;;;;;;2.03;1.40;;;;;;;;;;5054668;28;20033;-74
2023/04/17 08:24:32;;;;;;;3.47;1.67;;;;;;;;;;5056034;28;20025;-73
2023/04/17 08:26:57;;;;;;;2.35;1.30;;;;;;;;;;5056121;28;20069;-73
2023/04/17 08:29:23;;;;;;;1.88;1.55;;;;;;;;;;5056370;28;20029;-73
2023/04/17 08:31:48;;;;;;;1.67;1.30;;;;;;;;;;5056701;28;20029;-73
2023/04/17 08:34:13;;;;;;;3.80;1.30;;;;;;;;;;5056090;28;20028;-73
2023/04/17 08:36:39;;;;;;;1.85;1.35;;;;;;;;;;5056297;28;20265;-75
2023/04/17 08:39:04;;;;;;;1.75;1.40;;;;;;;;;;5055679;28;20495;-73
2023/04/17 08:41:36;;;;;;;1.50;1.20;;;;;;;;;;5054172;28;20065;-74
2023/04/17 08:44:02;;;;;;;4.20;1.30;;;;;;;;;;5054920;28;20025;-74
2023/04/17 08:46:29;;;;;;;4.80;1.48;;;;;;;;;;5056008;28;20029;-74
2023/04/17 08:48:55;;;;;;;1.52;1.33;;;;;;;;;;5055460;28;20479;-74
2023/04/17 08:51:23;;;;;;;3.45;1.60;;;;;;;;;;5055365;28;20037;-74
2023/04/17 08:53:49;;;;;;;2.22;1.70;;;;;;;;;;5055612;28;20029;-76
2023/04/17 08:56:14;;;;;;;3.75;1.85;;;;;;;;;;5055433;28;20024;-76
2023/04/17 08:58:40;;;;;;;5.85;1.83;;;;;;;;;;5056878;28;20037;-74
2023/04/17 09:01:16;;;;;;;2.90;1.63;;;;;;;;;;5056637;28;20403;-74
2023/04/17 09:03:43;;;;;;;4.65;1.50;;;;;;;;;;5054448;28;20032;-74
2023/04/17 09:06:10;;;;;;;4.32;1.95;;;;;;;;;;5054907;28;20513;-74
2023/04/17 09:08:36;;;;;;;3.30;2.10;;;;;;;;;;5055728;28;20025;-74
2023/04/17 09:11:01;;;;;;;3.78;2.45;;;;;;;;;;5055398;28;20438;-74
2023/04/17 09:13:28;;;;;;;3.17;2.40;;;;;;;;;;5054344;28;20025;-74
2023/04/17 09:16:11;;;;;;;3.75;2.60;;;;;;;;;;5054054;28;20078;-74
2023/04/17 09:18:38;;;;;;;4.32;2.60;;;;;;;;;;5055169;28;20029;-74
2023/04/17 09:21:05;;;;;;;8.80;2.85;;;;;;;;;;5053751;28;20086;-74
2023/04/17 09:23:45;;;;;;;3.55;2.63;;;;;;;;;;5053619;28;20117;-74
2023/04/17 09:26:15;;;;;;;5.20;2.67;;;;;;;;;;5055401;28;20047;-75
2023/04/17 09:28:42;;;;;;;4.63;2.92;;;;;;;;;;5053665;28;20025;-80
2023/04/17 09:31:17;;;;;;;5.82;2.80;;;;;;;;;;5053268;28;20506;-73
2023/04/17 09:33:59;;;;;;;6.13;2.70;;;;;;;;;;5054812;28;20031;-73
2023/04/17 09:36:26;;;;;;;3.97;2.45;;;;;;;;;;5055029;28;20435;-73
2023/04/17 09:38:52;;;;;;;3.25;2.28;;;;;;;;;;5054459;28;20028;-74
2023/04/17 09:41:28;;;;;;;3.08;2.38;;;;;;;;;;5054146;28;20032;-73
2023/04/17 09:44:05;;;;;;;2.90;2.22;;;;;;;;;;5054199;28;20117;-74
2023/04/17 09:46:38;;;;;;;5.07;2.72;;;;;;;;;;5054547;28;20044;-75
2023/04/17 09:49:08;;;;;;;4.93;2.60;;;;;;;;;;5054032;28;20025;-74
2023/04/17 09:51:34;;;;;;;3.50;2.75;;;;;;;;;;5052930;28;20021;-75
2023/04/17 09:54:04;;;;;;;5.93;3.30;;;;;;;;;;5054213;28;20035;-74
2023/04/17 09:56:32;;;;;;;3.30;2.55;;;;;;;;;;5054395;28;20108;-75
2023/04/17 09:58:59;;;;;;;3.35;2.58;;;;;;;;;;5053987;28;20056;-75
2023/04/17 10:01:25;;;;;;;3.65;2.67;;;;;;;;;;5053845;28;20484;-75
2023/04/17 10:03:50;;;;;;;6.50;3.85;;;;;;;;;;5053611;28;20108;-75
2023/04/17 10:06:16;;;;;;;4.90;3.60;;;;;;;;;;5053739;28;20025;-75
2023/04/17 10:08:41;;;;;;;4.60;3.15;;;;;;;;;;5053668;28;20029;-75
2023/04/17 10:11:07;;;;;;;4.10;3.25;;;;;;;;;;5052209;28;20031;-75
2023/04/17 10:13:37;;;;;;;4.22;3.83;;;;;;;;;;5053950;28;20029;-74
2023/04/17 10:16:04;;;;;;;6.57;3.60;;;;;;;;;;5052983;28;20111;-75
2023/04/17 10:18:31;;;;;;;4.05;3.42;;;;;;;;;;5052243;28;20036;-74
2023/04/17 10:21:21;;;;;;;5.70;4.05;;;;;;;;;;5053523;28;20025;-74
2023/04/17 10:23:46;;;;;;;7.32;5.35;;;;;;;;;;5053536;28;20029;-75
2023/04/17 10:26:23;;;;;;;6.85;4.85;;;;;;;;;;5053435;28;20059;-74
2023/04/17 10:28:50;;;;;;;8.13;4.50;;;;;;;;;;5053402;28;20039;-75
2023/04/17 10:31:18;;;;;;;7.50;4.82;;;;;;;;;;5052153;28;20032;-75
2023/04/17 10:33:51;;;;;;;8.40;4.55;;;;;;;;;;5052500;28;20017;-74
2023/04/17 10:36:35;;;;;;;4.85;3.58;;;;;;;;;;5053684;28;20017;-74
2023/04/17 10:39:14;;;;;;;4.57;3.72;;;;;;;;;;5053520;28;20090;-75
2023/04/17 10:42:05;;;;;;;9.38;5.15;;;;;;;;;;5053153;28;20037;-75
2023/04/17 10:44:34;;;;;;;6.38;3.90;;;;;;;;;;5053426;28;20037;-75
2023/04/17 10:47:05;;;;;;;4.63;3.88;;;;;;;;;;5053273;28;20035;-74
2023/04/17 10:49:52;;;;;;;5.07;2.55;;;;;;;;;;5051881;28;20082;-74
2023/04/17 10:52:40;;;;;;;5.28;3.08;;;;;;;;;;5053009;28;20025;-74
2023/04/17 10:55:14;;;;;;;6.47;4.20;;;;;;;;;;5051775;28;20048;-74
2023/04/17 10:58:01;;;;;;;5.85;3.65;;;;;;;;;;5053186;28;20090;-74
2023/04/17 11:00:31;;;;;;;5.93;3.80;;;;;;;;;;5053389;28;20025;-75
2023/04/17 11:02:57;;;;;;;5.35;3.67;;;;;;;;;;5053027;28;20028;-75
2023/04/17 11:05:23;;;;;;;5.22;3.63;;;;;;;;;;5052943;28;20033;-75
2023/04/17 11:07:57;;;;;;;5.35;3.85;;;;;;;;;;5053165;28;20017;-75
2023/04/17 11:10:32;;;;;;;7.60;3.45;;;;;;;;;;5052877;28;20021;-75
2023/04/17 11:12:57;;;;;;;4.28;3.45;;;;;;;;;;5052762;28;20043;-76
2023/04/17 11:15:27;;;;;;;8.67;5.00;;;;;;;;;;5055700;28;20025;-75
2023/04/17 11:17:55;;;;;;;6.13;3.78;;;;;;;;;;5057076;28;20258;-75
2023/04/17 11:20:22;;;;;;;5.22;3.70;;;;;;;;;;5056817;28;20025;-75
2023/04/17 11:22:47;;;;;;;4.55;3.35;;;;;;;;;;5055836;28;20025;-75
2023/04/17 11:25:20;;;;;;;5.40;3.88;;;;;;;;;;5056995;28;20028;-75
2023/04/17 11:27:46;;;;;;;5.68;3.58;;;;;;;;;;5057209;28;20032;-75
2023/04/17 11:30:11;;;;;;;5.20;3.75;;;;;;;;;;5056932;28;20028;-75
2023/04/17 11:32:37;;;;;;;5.20;4.00;;;;;;;;;;5056637;28;20043;-75
2023/04/17 11:35:03;;;;;;;4.63;3.88;;;;;;;;;;5057084;28;20016;-74
2023/04/17 11:37:28;;;;;;;6.60;3.95;;;;;;;;;;5056488;28;20033;-75
2023/04/17 11:40:05;;;;;;;4.30;3.40;;;;;;;;;;5056589;28;20033;-75
2023/04/17 11:42:30;;;;;;;6.90;3.80;;;;;;;;;;5056613;28;20298;-75
2023/04/17 11:45:18;;;;;;;10.17;4.47;;;;;;;;;;5056452;28;20122;-76
2023/04/17 11:47:46;;;;;;;7.03;4.55;;;;;;;;;;5053065;28;20750;-75
2023/04/17 11:50:14;;;;;;;7.05;4.05;;;;;;;;;;5056616;28;20021;-74
2023/04/17 11:52:40;;;;;;;4.10;3.17;;;;;;;;;;5056370;28;20369;-76
2023/04/17 11:55:07;;;;;;;9.40;4.60;;;;;;;;;;5056463;28;20025;-75
2023/04/17 11:57:42;;;;;;;5.50;3.70;;;;;;;;;;5056199;28;20562;-74
2023/04/17 12:00:11;;;;;;;7.68;3.85;;;;;;;;;;5056587;28;20032;-75
2023/04/17 12:02:37;;;;;;;7.00;4.22;;;;;;;;;;5056197;28;20065;-75
2023/04/17 12:05:39;;;;;;;5.57;3.40;;;;;;;;;;5054800;28;20048;-75
2023/04/17 12:08:06;;;;;;;5.60;3.92;;;;;;;;;;5056072;28;20091;-74
2023/04/17 12:10:43;;;;;;;5.40;3.70;;;;;;;;;;5055916;28;20024;-73
2023/04/17 12:13:11;;;;;;;4.70;3.20;;;;;;;;;;5056234;28;20025;-74
2023/04/17 12:15:37;;;;;;;5.53;3.78;;;;;;;;;;5054689;28;20031;-75
2023/04/17 12:18:04;;;;;;;7.10;4.00;;;;;;;;;;5054634;28;20021;-75
2023/04/17 12:20:36;;;;;;;6.70;2.88;;;;;;;;;;5055818;28;20035;-74
2023/04/17 12:23:04;;;;;;;5.10;4.00;;;;;;;;;;5055643;28;20025;-74
2023/04/17 12:25:38;;;;;;;5.57;4.10;;;;;;;;;;5056103;28;20039;-75
2023/04/17 12:28:04;;;;;;;6.75;3.85;;;;;;;;;;5054862;28;20056;-75
2023/04/17 12:30:29;;;;;;;5.55;3.25;;;;;;;;;;5055607;28;20071;-75
2023/04/17 12:32:55;;;;;;;5.15;3.40;;;;;;;;;;5055740;28;20046;-75
2023/04/17 12:35:21;;;;;;;6.13;3.58;;;;;;;;;;5056165;28;20016;-76
2023/04/17 12:37:50;;;;;;;5.63;3.60;;;;;;;;;;5055540;28;20037;-76
2023/04/17 12:40:16;;;;;;;5.88;2.22;;;;;;;;;;5054999;28;20029;-75
2023/04/17 12:42:41;;;;;;;4.15;3.17;;;;;;;;;;5054060;28;20025;-74
2023/04/17 12:45:07;;;;;;;5.03;3.35;;;;;;;;;;5055363;28;20036;-75
2023/04/17 12:47:32;;;;;;;5.82;3.00;;;;;;;;;;5055783;28;20028;-75
2023/04/17 12:49:58;;;;;;;4.77;3.00;;;;;;;;;;5054143;28;20032;-75
2023/04/17 12:52:23;;;;;;;5.63;3.20;;;;;;;;;;5054082;28;20328;-75
2023/04/17 12:54:50;;;;;;;6.07;3.80;;;;;;;;;;5055052;28;20383;-74
2023/04/17 12:57:15;;;;;;;3.97;2.92;;;;;;;;;;5055620;28;20029;-75
2023/04/17 12:59:41;;;;;;;4.20;2.90;;;;;;;;;;5053852;28;20023;-75
2023/04/17 13:02:08;;;;;;;5.43;3.20;;;;;;;;;;5055078;28;20038;-75
2023/04/17 13:04:34;;;;;;;6.57;3.50;;;;;;;;;;5055510;28;20257;-76
2023/04/17 13:06:59;;;;;;;3.95;2.70;;;;;;;;;;5055597;28;20017;-76
2023/04/17 13:09:25;;;;;;;6.43;3.45;;;;;;;;;;5055751;28;20031;-76
2023/04/17 13:11:50;;;;;;;3.97;2.75;;;;;;;;;;5055213;28;20059;-76
2023/04/17 13:14:15;;;;;;;4.85;2.78;;;;;;;;;;5055276;28;20025;-76
2023/04/17 13:16:40;;;;;;;5.70;3.53;;;;;;;;;;5055039;28;20025;-75
2023/04/17 13:19:06;;;;;;;4.53;3.50;;;;;;;;;;5055440;28;20269;-75
2023/04/17 13:21:31;;;;;;;4.82;3.60;;;;;;;;;;5055406;28;20258;-76
2023/04/17 13:23:56;;;;;;;8.57;3.67;;;;;;;;;;5055313;28;20036;-74
2023/04/17 13:26:21;;;;;;;4.60;3.67;;;;;;;;;;5053653;28;20268;-75
2023/04/17 13:28:47;;;;;;;10.00;4.13;;;;;;;;;;5054773;28;20029;-75
2023/04/17 13:31:13;;;;;;;9.63;4.05;;;;;;;;;;5054987;28;20427;-75
2023/04/17 13:33:39;;;;;;;7.40;3.72;;;;;;;;;;5054658;28;20017;-76
2023/04/17 13:36:05;;;;;;;6.00;3.58;;;;;;;;;;5054703;28;20021;-74
2023/04/17 13:38:30;;;;;;;6.38;3.70;;;;;;;;;;5053396;28;20077;-74
2023/04/17 13:40:55;;;;;;;6.33;4.03;;;;;;;;;;5054534;28;20129;-75
2023/04/17 13:43:20;;;;;;;6.53;4.00;;;;;;;;;;5052856;28;20270;-74
2023/04/17 13:45:46;;;;;;;6.45;3.60;;;;;;;;;;5054434;28;20439;-75
2023/04/17 13:48:11;;;;;;;4.72;2.97;;;;;;;;;;5053750;28;20025;-75
2023/04/17 13:50:36;;;;;;;6.15;4.07;;;;;;;;;;5054635;28;20031;-75
2023/04/17 13:53:01;;;;;;;8.00;4.15;;;;;;;;;;5052810;28;20027;-74
2023/04/17 13:55:27;;;;;;;8.38;4.75;;;;;;;;;;5054401;28;20469;-75
2023/04/17 13:57:53;;;;;;;6.85;3.65;;;;;;;;;;5052699;28;20110;-75
2023/04/17 14:00:19;;;;;;;12.85;4.35;;;;;;;;;;5054216;28;20024;-75
2023/04/17 14:02:47;;;;;;;9.10;4.43;;;;;;;;;;5052575;28;20021;-75
2023/04/17 14:05:13;;;;;;;4.50;3.60;;;;;;;;;;5054477;28;20032;-74
2023/04/17 14:07:38;;;;;;;5.78;4.18;;;;;;;;;;5053960;28;20070;-75
2023/04/17 14:10:04;;;;;;;5.90;4.30;;;;;;;;;;5053711;28;20114;-76
2023/04/17 14:12:29;;;;;;;6.80;4.50;;;;;;;;;;5053465;28;20075;-74
2023/04/17 14:14:55;;;;;;;6.13;4.88;;;;;;;;;;5053860;28;20028;-75
2023/04/17 14:17:20;;;;;;;11.45;4.38;;;;;;;;;;5054209;28;20464;-75
2023/04/17 14:19:48;;;;;;;7.30;4.00;;;;;;;;;;5053701;28;20024;-75
2023/04/17 14:22:13;;;;;;;9.73;4.18;;;;;;;;;;5053994;28;20487;-76
2023/04/17 14:24:38;;;;;;;8.87;4.70;;;;;;;;;;5053746;28;20025;-74
2023/04/17 14:27:03;;;;;;;8.80;5.50;;;;;;;;;;5054366;28;20272;-74
2023/04/17 14:29:29;;;;;;;6.07;4.40;;;;;;;;;;5053891;28;20266;-74
2023/04/17 14:31:54;;;;;;;7.90;5.03;;;;;;;;;;5053749;28;20256;-74
2023/04/17 14:34:19;;;;;;;9.93;5.33;;;;;;;;;;5053490;28;20104;-74
2023/04/17 14:36:44;;;;;;;7.87;5.33;;;;;;;;;;5053637;28;20258;-75
2023/04/17 14:39:10;;;;;;;7.80;4.50;;;;;;;;;;5053870;28;20246;-75
2023/04/17 14:41:35;;;;;;;8.52;4.65;;;;;;;;;;5051960;28;20116;-75